Franklin, Ohio
Current Conditions -  °F | °C
As of 7:53 PM on Wednesday 22 Oct 2014 (Local Time) from KMGY Reporting Station
Overcast Overcast  
Wind Chill: 46°   Ceiling: 2200
Heat Index: 49°   Visibility: 10mi
Dew Point: 41°   Wind: 7mph
Humidity: 74%   Direction: 20°NNE
Pressure: 30.27"   Gusts: NA
Location:  39.54°N, 84.29°W
Report Text: KMGY 222353Z AUTO 02006KT 10SM OVC022 09/05 A3027 RMK AO2 SLP253 T00940050 10111 20094 53001
Loading
Personal Weather Stations






























Interactive Weather Map
Tropical Storm Tracking
New forecast layout! Learn more

10-Day Weather Forecast

Advertisements
Track Severe Weather on mobile